Ignacio, California
Current Conditions -  °F | °C
As of 11:55 PM on Thursday 30 Oct 2014 (Local Time) from KDVO Reporting Station
Broken Clouds Broken Clouds  
Wind Chill: 63°   Ceiling: 3800
Heat Index: 63°   Visibility: NA
Dew Point: 57°   Wind: 5mph
Humidity: 82%   Direction: 260°W
Pressure: 29.91"   Gusts: NA
Location:  38.0639°N, 122.532°W
Report Text: KDVO 310655Z AUTO 26004KT BKN038 17/14 A2991 RMK AO2
Loading
Personal Weather Stations






























Interactive Weather Map
Tropical Storm Tracking
New forecast layout! Learn more

10-Day Weather Forecast

Advertisements
Track Severe Weather on mobile